Time;durP1;ratioP1;P1;durP2;ratioP2;P2;SDS_P1;SDS_P2;PMS_P1;PMS_P2;Temp;Humidity;BMP_temperature;BMP_pressure;BME280_temperature;BME280_humidity;BME280_pressure;Samples;Min_cycle;Max_cycle;Signal;HPM_P1;HPM_P2
2021/08/16 00:00:55;;;;;;;15.23;5.85;;;16.80;99.90;;;;;;4210905;28;20487;-75
2021/08/16 00:02:56;;;;;;;18.75;5.85;;;16.90;99.90;;;;;;4210157;28;20115;-75
2021/08/16 00:04:56;;;;;;;18.30;5.90;;;16.80;99.90;;;;;;4211066;28;20028;-76
2021/08/16 00:06:57;;;;;;;24.60;6.38;;;16.80;99.90;;;;;;4211052;28;20438;-76
2021/08/16 00:08:57;;;;;;;22.02;6.15;;;16.70;99.90;;;;;;4205507;28;20036;-76
2021/08/16 00:11:02;;;;;;;16.38;6.38;;;16.70;99.90;;;;;;4212207;28;20051;-75
2021/08/16 00:13:03;;;;;;;23.50;6.65;;;16.80;99.90;;;;;;4190251;28;20505;-75
2021/08/16 00:15:05;;;;;;;19.33;5.53;;;16.80;99.90;;;;;;4189803;28;20021;-76
2021/08/16 00:17:06;;;;;;;22.60;6.32;;;16.80;99.90;;;;;;4189933;28;20055;-76
2021/08/16 00:19:06;;;;;;;24.40;6.82;;;16.80;99.90;;;;;;4212752;28;20486;-75
2021/08/16 00:21:07;;;;;;;20.58;6.47;;;16.70;99.90;;;;;;4210137;28;20541;-76
2021/08/16 00:23:07;;;;;;;23.17;7.03;;;16.80;99.90;;;;;;4213706;28;20125;-75
2021/08/16 00:25:08;;;;;;;18.98;5.13;;;16.70;99.90;;;;;;4193209;28;20029;-75
2021/08/16 00:27:09;;;;;;;20.85;7.25;;;16.60;99.90;;;;;;4212865;28;20032;-76
2021/08/16 00:29:10;;;;;;;20.65;5.72;;;16.60;99.90;;;;;;4213336;28;20071;-76
2021/08/16 00:31:11;;;;;;;21.42;7.50;;;16.60;99.90;;;;;;4214895;28;20025;-76
2021/08/16 00:33:12;;;;;;;23.77;6.43;;;16.50;99.90;;;;;;4213419;28;20028;-76
2021/08/16 00:35:13;;;;;;;29.63;9.18;;;16.50;99.90;;;;;;4205497;28;20021;-73
2021/08/16 00:37:13;;;;;;;32.05;8.45;;;16.40;99.90;;;;;;4192560;28;20088;-74
2021/08/16 00:39:15;;;;;;;27.83;7.05;;;16.30;99.90;;;;;;4193293;28;20500;-74
2021/08/16 00:41:17;;;;;;;25.35;6.85;;;16.30;99.90;;;;;;4212727;28;20498;-74
2021/08/16 00:43:18;;;;;;;20.70;6.67;;;16.30;99.90;;;;;;4188718;28;20037;-74
2021/08/16 00:45:18;;;;;;;28.02;6.82;;;16.20;99.90;;;;;;4195327;28;20055;-75
2021/08/16 00:47:21;;;;;;;27.42;7.20;;;16.20;99.90;;;;;;4197004;28;20082;-76
2021/08/16 00:49:21;;;;;;;21.55;6.00;;;16.20;99.90;;;;;;4194486;28;20057;-76
2021/08/16 00:51:25;;;;;;;21.25;6.85;;;16.10;99.90;;;;;;4195852;28;20127;-75
2021/08/16 00:53:28;;;;;;;19.63;7.03;;;16.20;99.90;;;;;;4193619;28;20530;-75
2021/08/16 00:55:29;;;;;;;24.02;7.10;;;16.20;99.90;;;;;;4190771;28;20124;-74
2021/08/16 00:57:31;;;;;;;23.63;6.75;;;16.20;99.90;;;;;;4192708;28;20039;-76
2021/08/16 00:59:32;;;;;;;25.70;6.18;;;16.20;99.90;;;;;;4188652;28;20688;-75
2021/08/16 01:01:33;;;;;;;16.50;5.63;;;16.10;99.90;;;;;;4196516;28;20561;-75
2021/08/16 01:03:33;;;;;;;25.30;6.45;;;16.20;99.90;;;;;;4195528;28;20036;-76
2021/08/16 01:05:34;;;;;;;26.05;6.70;;;16.20;99.90;;;;;;4197426;28;20540;-76
2021/08/16 01:07:35;;;;;;;21.38;6.45;;;16.20;99.90;;;;;;4197294;28;20045;-75
2021/08/16 01:09:36;;;;;;;24.75;7.68;;;16.20;99.90;;;;;;4196189;28;20032;-75
2021/08/16 01:11:36;;;;;;;24.10;7.80;;;16.20;99.90;;;;;;4194336;28;20055;-76
2021/08/16 01:13:37;;;;;;;22.35;7.18;;;16.20;99.90;;;;;;4196222;28;20036;-76
2021/08/16 01:15:38;;;;;;;21.88;7.32;;;16.20;99.90;;;;;;4211323;28;20120;-75
2021/08/16 01:17:40;;;;;;;22.10;6.90;;;16.30;99.90;;;;;;4192441;28;20086;-75
2021/08/16 01:19:41;;;;;;;24.13;6.22;;;16.10;99.90;;;;;;4194168;28;20044;-75
2021/08/16 01:21:41;;;;;;;26.67;7.85;;;16.10;99.90;;;;;;4191529;28;20036;-75
2021/08/16 01:23:43;;;;;;;20.42;6.28;;;16.10;99.90;;;;;;4201735;28;20035;-75
2021/08/16 01:25:47;;;;;;;23.08;7.25;;;16.00;99.90;;;;;;4195447;28;20036;-75
2021/08/16 01:27:48;;;;;;;21.10;6.68;;;16.00;99.90;;;;;;4192484;28;20032;-76
2021/08/16 01:29:48;;;;;;;27.23;7.60;;;15.90;99.90;;;;;;4194924;28;20116;-75
2021/08/16 01:31:50;;;;;;;23.23;6.95;;;15.90;99.90;;;;;;4191424;28;20028;-73
2021/08/16 01:33:50;;;;;;;28.83;6.32;;;15.90;99.90;;;;;;4194410;28;20570;-75
2021/08/16 01:35:52;;;;;;;30.27;9.15;;;16.00;99.90;;;;;;4192864;28;20115;-75
2021/08/16 01:37:52;;;;;;;26.88;7.85;;;15.90;99.90;;;;;;4188626;28;20102;-75
2021/08/16 01:39:53;;;;;;;26.33;7.78;;;15.80;99.90;;;;;;4195234;28;20025;-76
2021/08/16 01:41:53;;;;;;;28.50;8.93;;;15.80;99.90;;;;;;4190962;28;20453;-74
2021/08/16 01:43:54;;;;;;;35.65;8.57;;;15.90;99.90;;;;;;4192888;28;20119;-76
2021/08/16 01:45:55;;;;;;;24.27;7.05;;;15.90;99.90;;;;;;4188744;28;20465;-75
2021/08/16 01:47:55;;;;;;;19.70;6.47;;;15.90;99.90;;;;;;4193082;28;20514;-76
2021/08/16 01:49:56;;;;;;;19.42;6.32;;;15.90;99.90;;;;;;4188636;28;20064;-76
2021/08/16 01:51:56;;;;;;;21.15;7.07;;;15.80;99.90;;;;;;4193918;28;20526;-74
2021/08/16 01:53:57;;;;;;;22.73;6.68;;;15.80;99.90;;;;;;4188390;28;20032;-75
2021/08/16 01:55:57;;;;;;;22.33;7.18;;;16.00;99.90;;;;;;4190253;28;20166;-76
2021/08/16 01:57:58;;;;;;;26.10;6.47;;;16.00;99.90;;;;;;4194211;28;20112;-76
2021/08/16 01:59:59;;;;;;;25.00;6.63;;;16.10;99.90;;;;;;4194845;28;20036;-76
2021/08/16 02:01:59;;;;;;;24.00;6.43;;;16.30;99.90;;;;;;4193160;28;20617;-76
2021/08/16 02:04:00;;;;;;;22.67;7.30;;;16.30;99.90;;;;;;4194794;28;20479;-75
2021/08/16 02:06:00;;;;;;;35.70;6.78;;;16.30;99.90;;;;;;4192100;28;20033;-77
2021/08/16 02:08:01;;;;;;;25.90;6.90;;;;;;;;;;4185967;28;20037;-75
2021/08/16 02:10:04;;;;;;;26.38;7.60;;;16.30;99.90;;;;;;4195305;28;20145;-76
2021/08/16 02:12:05;;;;;;;30.60;8.18;;;16.30;99.90;;;;;;4194088;28;20380;-74
2021/08/16 02:14:05;;;;;;;27.25;7.95;;;16.20;99.90;;;;;;4195859;28;20447;-76
2021/08/16 02:16:06;;;;;;;29.92;8.45;;;16.10;99.90;;;;;;4194996;28;20043;-75
2021/08/16 02:18:07;;;;;;;28.42;7.32;;;16.20;99.90;;;;;;4193685;28;20029;-76
2021/08/16 02:20:09;;;;;;;22.23;6.40;;;16.20;99.90;;;;;;4211515;28;20511;-75
2021/08/16 02:22:09;;;;;;;22.42;7.10;;;16.20;99.90;;;;;;4188516;28;20544;-76
2021/08/16 02:24:10;;;;;;;29.70;7.68;;;16.20;99.90;;;;;;4194071;28;20031;-75
2021/08/16 02:26:11;;;;;;;21.48;8.93;;;16.10;99.90;;;;;;4193213;28;20045;-75
2021/08/16 02:28:16;;;;;;;28.27;7.82;;;16.10;99.90;;;;;;4195863;28;20486;-75
2021/08/16 02:30:18;;;;;;;22.80;7.18;;;16.10;99.90;;;;;;4191067;28;20041;-75
2021/08/16 02:32:18;;;;;;;20.33;7.00;;;16.20;99.90;;;;;;4195109;28;20032;-75
2021/08/16 02:34:20;;;;;;;22.65;6.65;;;16.30;99.90;;;;;;4190551;28;20029;-75
2021/08/16 02:36:20;;;;;;;26.45;6.28;;;16.30;99.90;;;;;;4211726;28;20040;-75
2021/08/16 02:38:21;;;;;;;24.85;7.18;;;16.20;99.90;;;;;;4195454;28;20095;-74
2021/08/16 02:40:22;;;;;;;26.75;7.70;;;16.30;99.90;;;;;;4195039;28;20464;-75
2021/08/16 02:42:22;;;;;;;25.50;8.10;;;16.40;99.90;;;;;;4197080;28;20036;-74
2021/08/16 02:44:23;;;;;;;29.67;7.43;;;16.30;99.90;;;;;;4206816;28;20491;-74
2021/08/16 02:46:24;;;;;;;29.55;9.20;;;;;;;;;;4210796;28;20059;-74
2021/08/16 02:48:25;;;;;;;27.67;7.35;;;16.40;99.90;;;;;;4212082;28;20127;-74
2021/08/16 02:50:26;;;;;;;18.17;6.53;;;;;;;;;;4211495;28;20483;-74
2021/08/16 02:52:27;;;;;;;32.33;7.05;;;16.40;99.90;;;;;;4205893;28;20588;-76
2021/08/16 02:54:27;;;;;;;39.85;8.18;;;16.40;99.90;;;;;;4194948;28;20111;-75
2021/08/16 02:56:28;;;;;;;20.27;6.90;;;16.40;99.90;;;;;;4188892;28;20510;-75
2021/08/16 02:58:28;;;;;;;22.58;6.95;;;16.50;99.90;;;;;;4210188;28;20422;-74
2021/08/16 03:00:29;;;;;;;24.70;7.15;;;16.50;99.90;;;;;;4205182;28;20036;-74
2021/08/16 03:02:29;;;;;;;30.27;7.90;;;16.50;99.90;;;;;;4184240;28;20033;-74
2021/08/16 03:04:30;;;;;;;32.17;6.85;;;16.50;99.90;;;;;;4208654;28;20638;-75
2021/08/16 03:06:31;;;;;;;24.80;8.20;;;16.40;99.90;;;;;;4210468;28;20058;-74
2021/08/16 03:08:34;;;;;;;27.23;6.97;;;16.40;99.90;;;;;;4190761;28;20085;-73
2021/08/16 03:10:35;;;;;;;24.67;8.05;;;16.50;99.90;;;;;;4194113;28;20089;-73
2021/08/16 03:12:36;;;;;;;25.70;8.02;;;16.50;99.90;;;;;;4211295;28;20471;-73
2021/08/16 03:14:36;;;;;;;26.45;6.57;;;16.50;99.90;;;;;;4205038;28;20056;-72
2021/08/16 03:16:37;;;;;;;24.40;7.25;;;16.60;99.90;;;;;;4208728;28;20035;-72
2021/08/16 03:18:37;;;;;;;18.90;6.43;;;16.50;99.90;;;;;;4204706;28;20111;-73
2021/08/16 03:20:40;;;;;;;22.42;7.10;;;16.50;99.90;;;;;;4204906;28;20514;-74
2021/08/16 03:22:40;;;;;;;18.77;7.13;;;16.50;99.90;;;;;;4205725;28;20061;-73
2021/08/16 03:24:41;;;;;;;21.88;6.65;;;16.40;99.90;;;;;;4188729;28;20028;-73
2021/08/16 03:26:42;;;;;;;19.25;7.20;;;16.40;99.90;;;;;;4210172;28;20024;-73
2021/08/16 03:28:42;;;;;;;24.00;6.15;;;16.30;99.90;;;;;;4206282;28;20486;-73
2021/08/16 03:30:47;;;;;;;19.77;7.07;;;16.40;99.90;;;;;;4191118;28;20032;-74
2021/08/16 03:32:48;;;;;;;22.55;7.75;;;16.30;99.90;;;;;;4207615;28;20028;-74
2021/08/16 03:34:49;;;;;;;22.98;7.45;;;16.20;99.90;;;;;;4211389;28;20138;-73
2021/08/16 03:36:49;;;;;;;22.20;6.10;;;16.20;99.90;;;;;;4209100;28;21579;-74
2021/08/16 03:38:50;;;;;;;27.50;8.30;;;16.20;99.90;;;;;;4192196;28;20116;-74
2021/08/16 03:40:51;;;;;;;25.00;7.07;;;16.20;99.90;;;;;;4209769;28;20044;-74
2021/08/16 03:42:51;;;;;;;13.40;7.15;;;16.20;99.90;;;;;;4214894;28;20039;-74
2021/08/16 03:44:52;;;;;;;21.25;7.95;;;16.20;99.90;;;;;;4213852;28;20036;-74
2021/08/16 03:46:53;;;;;;;26.13;7.50;;;16.20;99.90;;;;;;4194756;28;20399;-75
2021/08/16 03:48:54;;;;;;;29.42;8.13;;;16.10;99.90;;;;;;4209286;28;20604;-74
2021/08/16 03:50:54;;;;;;;21.75;7.13;;;16.00;99.90;;;;;;4207413;28;20024;-74
2021/08/16 03:52:55;;;;;;;27.40;8.57;;;16.00;99.90;;;;;;4214556;28;20032;-74
2021/08/16 03:54:56;;;;;;;23.25;7.80;;;16.00;99.90;;;;;;4190107;28;20024;-73
2021/08/16 03:56:56;;;;;;;33.38;10.52;;;15.90;99.90;;;;;;4214026;28;20032;-72
2021/08/16 03:58:57;;;;;;;30.60;8.85;;;15.80;99.90;;;;;;4214161;28;20037;-72
2021/08/16 04:00:58;;;;;;;19.55;10.45;;;15.80;99.90;;;;;;4212577;28;20125;-73
2021/08/16 04:02:59;;;;;;;26.48;7.93;;;15.80;99.90;;;;;;4191506;28;20024;-73
2021/08/16 04:04:59;;;;;;;14.63;7.03;;;15.90;99.90;;;;;;4195406;28;20138;-73
2021/08/16 04:07:00;;;;;;;23.60;8.85;;;15.90;99.90;;;;;;4193083;28;20691;-73
2021/08/16 04:09:01;;;;;;;23.38;8.45;;;15.80;99.90;;;;;;4213193;28;20036;-75
2021/08/16 04:11:01;;;;;;;24.92;7.90;;;15.80;99.90;;;;;;4212233;28;20550;-73
2021/08/16 04:13:03;;;;;;;29.73;8.73;;;15.90;99.90;;;;;;4195377;28;20021;-73
2021/08/16 04:15:08;;;;;;;21.65;7.43;;;15.90;99.90;;;;;;4195725;28;20456;-73
2021/08/16 04:17:09;;;;;;;25.40;7.82;;;15.90;99.90;;;;;;4213142;28;20020;-73
2021/08/16 04:19:10;;;;;;;26.27;7.43;;;15.90;99.90;;;;;;4212289;28;20406;-74
2021/08/16 04:21:10;;;;;;;22.80;7.82;;;15.80;99.90;;;;;;4214637;28;21582;-73
2021/08/16 04:23:11;;;;;;;20.15;7.13;;;15.90;99.90;;;;;;4213157;28;20449;-74
2021/08/16 04:25:15;;;;;;;20.63;7.65;;;15.90;99.90;;;;;;4196563;28;20041;-73
2021/08/16 04:27:16;;;;;;;25.65;8.43;;;;;;;;;;4212234;28;20464;-73
2021/08/16 04:29:16;;;;;;;25.83;8.43;;;15.90;99.90;;;;;;4214700;28;20040;-74
2021/08/16 04:31:17;;;;;;;25.67;7.38;;;16.00;99.90;;;;;;4193806;28;20053;-74
2021/08/16 04:33:18;;;;;;;18.75;6.78;;;16.00;99.90;;;;;;4196871;28;20041;-74
2021/08/16 04:35:19;;;;;;;15.52;7.45;;;16.00;99.90;;;;;;4195107;28;20029;-73
2021/08/16 04:37:19;;;;;;;27.77;9.52;;;16.00;99.90;;;;;;4212326;28;20074;-73
2021/08/16 04:39:20;;;;;;;18.20;6.72;;;16.10;99.90;;;;;;4212631;28;21170;-72
2021/08/16 04:41:21;;;;;;;31.25;8.15;;;16.10;99.90;;;;;;4213653;28;20040;-72
2021/08/16 04:43:22;;;;;;;22.23;8.02;;;16.10;99.90;;;;;;4183732;28;20403;-72
2021/08/16 04:45:23;;;;;;;24.55;7.75;;;16.10;99.90;;;;;;4181700;28;20041;-74
2021/08/16 04:47:24;;;;;;;25.65;6.93;;;16.20;99.90;;;;;;4194490;28;20075;-73
2021/08/16 04:49:25;;;;;;;14.93;6.70;;;16.20;99.90;;;;;;4180594;28;20041;-73
2021/08/16 04:51:25;;;;;;;27.98;8.18;;;16.20;99.90;;;;;;4182712;28;20045;-73
2021/08/16 04:53:26;;;;;;;23.35;7.68;;;16.20;99.90;;;;;;4181913;28;20033;-74
2021/08/16 04:55:26;;;;;;;22.95;7.93;;;16.30;99.90;;;;;;4186898;28;20032;-74
2021/08/16 04:57:34;;;;;;;22.25;7.10;;;16.20;99.90;;;;;;4183554;28;20484;-74
2021/08/16 04:59:35;;;;;;;27.25;7.90;;;16.20;99.90;;;;;;4181011;28;20036;-74
2021/08/16 05:01:37;;;;;;;20.92;7.85;;;16.20;99.90;;;;;;4176751;28;20035;-72
2021/08/16 05:03:37;;;;;;;18.83;7.70;;;16.40;99.90;;;;;;4179483;28;20037;-74
2021/08/16 05:05:46;;;;;;;19.88;8.55;;;16.40;99.90;;;;;;4181877;28;20143;-73
2021/08/16 05:07:54;;;;;;;27.27;10.32;;;16.40;99.90;;;;;;4198256;28;20050;-73
2021/08/16 05:09:55;;;;;;;29.85;9.32;;;16.40;99.90;;;;;;4182140;28;20045;-73
2021/08/16 05:11:55;;;;;;;17.02;7.53;;;16.30;99.90;;;;;;4183439;28;20507;-73
2021/08/16 05:13:56;;;;;;;17.65;7.70;;;16.40;99.90;;;;;;4181132;28;20021;-73
2021/08/16 05:15:57;;;;;;;22.80;8.48;;;16.40;99.90;;;;;;4180850;28;20033;-71
2021/08/16 05:18:00;;;;;;;22.13;8.60;;;16.40;99.90;;;;;;4177815;28;20040;-71
2021/08/16 05:20:02;;;;;;;;;;;16.40;99.90;;;;;;4176366;28;20033;-74
2021/08/16 05:22:07;;;;;;;13.13;7.35;;;16.40;99.90;;;;;;4180301;28;20046;-73
2021/08/16 05:24:08;;;;;;;23.58;8.65;;;16.40;99.90;;;;;;4183147;28;20128;-73
2021/08/16 05:26:08;;;;;;;28.70;9.02;;;16.40;99.90;;;;;;4179693;28;20111;-73
2021/08/16 05:28:09;;;;;;;26.40;10.40;;;16.30;99.90;;;;;;4182670;28;20119;-74
2021/08/16 05:30:10;;;;;;;20.85;10.18;;;16.20;99.90;;;;;;4179741;28;20041;-74
2021/08/16 05:32:10;;;;;;;20.98;9.63;;;16.10;99.90;;;;;;4180716;28;20128;-71
2021/08/16 05:34:11;;;;;;;26.20;10.27;;;16.20;99.90;;;;;;4182379;28;20060;-73
2021/08/16 05:36:11;;;;;;;20.80;10.30;;;16.10;99.90;;;;;;4182753;28;20414;-74
2021/08/16 05:38:18;;;;;;;16.20;7.97;;;16.10;99.90;;;;;;4177761;28;20033;-75
2021/08/16 05:40:19;;;;;;;26.88;10.30;;;16.10;99.90;;;;;;4197057;28;20388;-73
2021/08/16 05:42:19;;;;;;;23.50;10.50;;;16.10;99.90;;;;;;4188493;28;20056;-73
2021/08/16 05:44:20;;;;;;;26.35;10.73;;;16.00;99.90;;;;;;4209892;28;20415;-72
2021/08/16 05:46:20;;;;;;;25.48;11.40;;;16.00;99.90;;;;;;4211799;28;20036;-74
2021/08/16 05:48:21;;;;;;;28.17;12.25;;;15.90;99.90;;;;;;4192913;28;20067;-73
2021/08/16 05:50:23;;;;;;;17.55;9.88;;;16.00;99.90;;;;;;4206787;28;20382;-75
2021/08/16 05:52:23;;;;;;;30.33;11.23;;;16.10;99.90;;;;;;4207496;28;20040;-74
2021/08/16 05:54:24;;;;;;;28.75;11.77;;;16.10;99.90;;;;;;4212208;28;20032;-74
2021/08/16 05:56:25;;;;;;;32.75;12.25;;;16.10;99.90;;;;;;4207515;28;20115;-72
2021/08/16 05:58:25;;;;;;;31.30;12.35;;;16.20;99.90;;;;;;4212337;28;20164;-73
2021/08/16 06:00:26;;;;;;;27.15;13.07;;;16.10;99.90;;;;;;4209497;28;20044;-75
2021/08/16 06:02:31;;;;;;;28.85;14.00;;;16.30;99.90;;;;;;4212477;28;20028;-73
2021/08/16 06:04:32;;;;;;;25.98;14.18;;;16.30;99.90;;;;;;4210151;28;20047;-73
2021/08/16 06:06:36;;;;;;;30.45;13.55;;;16.40;99.90;;;;;;4188483;28;20049;-72
2021/08/16 06:08:37;;;;;;;31.75;15.65;;;16.20;99.90;;;;;;4208352;28;20036;-75
2021/08/16 06:10:37;;;;;;;32.30;16.88;;;16.20;99.90;;;;;;4207434;28;20539;-75
2021/08/16 06:12:38;;;;;;;35.65;16.55;;;16.10;99.90;;;;;;4194259;28;20170;-75
2021/08/16 06:14:39;;;;;;;32.90;17.25;;;16.10;99.90;;;;;;4188216;28;20123;-75
2021/08/16 06:16:40;;;;;;;29.17;15.98;;;16.10;99.90;;;;;;4208910;28;20136;-75
2021/08/16 06:18:41;;;;;;;32.03;16.33;;;16.10;99.90;;;;;;4205084;28;20089;-75
2021/08/16 06:20:42;;;;;;;24.92;15.77;;;16.00;99.90;;;;;;4195732;28;20040;-76
2021/08/16 06:22:42;;;;;;;23.10;14.35;;;16.00;99.90;;;;;;4192729;28;20036;-72
2021/08/16 06:24:43;;;;;;;23.58;12.32;;;16.00;99.90;;;;;;4211770;28;20051;-75
2021/08/16 06:26:44;;;;;;;15.73;11.05;;;16.00;99.90;;;;;;4192048;28;20138;-74
2021/08/16 06:28:44;;;;;;;23.63;11.95;;;16.10;99.90;;;;;;4194210;28;20068;-73
2021/08/16 06:30:45;;;;;;;8.35;5.32;;;16.10;99.90;;;;;;4209327;28;20339;-75
2021/08/16 06:32:46;;;;;;;9.38;5.70;;;16.20;99.90;;;;;;4211628;28;20051;-75
2021/08/16 06:34:48;;;;;;;12.60;6.97;;;16.20;99.90;;;;;;4210955;28;20036;-75
2021/08/16 06:36:55;;;;;;;6.75;5.07;;;16.10;99.90;;;;;;4204522;28;21318;-76
2021/08/16 06:38:56;;;;;;;6.15;5.15;;;16.20;99.90;;;;;;4206665;28;20036;-74
2021/08/16 06:40:57;;;;;;;12.63;5.60;;;15.60;99.90;;;;;;4191074;28;20084;-76
2021/08/16 06:42:59;;;;;;;8.75;5.70;;;16.10;99.90;;;;;;4206627;28;20047;-74
2021/08/16 06:45:00;;;;;;;9.90;4.85;;;16.10;99.90;;;;;;4190783;28;20036;-73
2021/08/16 06:47:01;;;;;;;6.18;4.50;;;16.10;99.90;;;;;;4208798;28;20055;-74
2021/08/16 06:49:01;;;;;;;7.82;4.63;;;16.10;99.90;;;;;;4190661;28;20040;-73
2021/08/16 06:51:02;;;;;;;8.07;4.72;;;16.20;99.90;;;;;;4190230;28;20042;-73
2021/08/16 06:53:03;;;;;;;6.10;4.00;;;16.30;99.90;;;;;;4204026;28;20365;-74
2021/08/16 06:55:04;;;;;;;8.52;3.83;;;16.40;99.90;;;;;;4192561;28;20025;-74
2021/08/16 06:57:04;;;;;;;7.20;4.03;;;16.30;99.90;;;;;;4195782;28;20055;-74
2021/08/16 06:59:05;;;;;;;9.63;5.22;;;16.30;99.90;;;;;;4210722;28;20521;-74
2021/08/16 07:01:05;;;;;;;6.40;4.53;;;16.30;99.90;;;;;;4211101;28;20024;-74
2021/08/16 07:03:06;;;;;;;7.72;5.47;;;16.40;99.90;;;;;;4211954;28;20032;-76
2021/08/16 07:05:08;;;;;;;5.95;4.25;;;16.40;99.90;;;;;;4203525;28;20376;-73
2021/08/16 07:07:10;;;;;;;7.50;4.20;;;16.40;99.90;;;;;;4190172;28;20387;-73
2021/08/16 07:09:11;;;;;;;9.45;4.47;;;16.40;99.90;;;;;;4203492;28;20031;-72
2021/08/16 07:11:12;;;;;;;6.90;4.55;;;16.40;99.90;;;;;;4207617;28;20029;-73
2021/08/16 07:13:13;;;;;;;10.40;4.25;;;16.60;99.90;;;;;;4194377;28;20024;-72
2021/08/16 07:15:14;;;;;;;6.32;4.15;;;16.70;99.90;;;;;;4209869;28;20036;-74
2021/08/16 07:17:15;;;;;;;7.03;3.58;;;16.80;99.90;;;;;;4210646;28;20109;-73
2021/08/16 07:19:15;;;;;;;11.63;3.65;;;17.00;99.90;;;;;;4211233;28;20038;-72
2021/08/16 07:21:16;;;;;;;13.20;3.97;;;17.00;99.90;;;;;;4209282;28;20495;-74
2021/08/16 07:23:16;;;;;;;8.27;4.22;;;17.20;99.90;;;;;;4212056;28;20111;-72
2021/08/16 07:25:17;;;;;;;7.93;4.43;;;17.20;99.90;;;;;;4209330;28;20032;-71
2021/08/16 07:27:18;;;;;;;8.43;3.70;;;17.20;99.90;;;;;;4201590;28;20032;-73
2021/08/16 07:29:18;;;;;;;7.32;3.90;;;17.20;99.90;;;;;;4210326;28;20025;-72
2021/08/16 07:31:19;;;;;;;7.88;4.20;;;17.20;99.90;;;;;;4207986;28;20467;-72
2021/08/16 07:33:19;;;;;;;7.10;3.53;;;17.20;99.90;;;;;;4205424;28;20044;-74
2021/08/16 07:35:21;;;;;;;9.32;4.63;;;17.10;99.90;;;;;;4204761;28;20388;-74
2021/08/16 07:37:21;;;;;;;10.45;4.63;;;17.10;99.90;;;;;;4190730;28;20064;-72
2021/08/16 07:39:22;;;;;;;10.10;4.75;;;17.10;99.90;;;;;;4208171;28;20059;-72
2021/08/16 07:41:23;;;;;;;13.07;5.72;;;17.10;99.90;;;;;;4191962;28;20112;-74
2021/08/16 07:43:24;;;;;;;7.78;4.57;;;17.10;99.90;;;;;;4190202;28;20096;-72
2021/08/16 07:45:24;;;;;;;10.77;4.55;;;17.00;99.90;;;;;;4210059;28;20032;-73
2021/08/16 07:47:26;;;;;;;11.10;5.18;;;16.90;99.90;;;;;;4208648;28;20394;-72
2021/08/16 07:49:30;;;;;;;12.98;5.45;;;16.80;99.90;;;;;;4209915;28;20105;-73
2021/08/16 07:51:30;;;;;;;12.35;5.07;;;16.60;99.90;;;;;;4210876;28;20040;-72
2021/08/16 07:53:31;;;;;;;12.18;6.53;;;16.60;99.90;;;;;;4209681;28;20127;-74
2021/08/16 07:55:32;;;;;;;15.20;6.25;;;16.50;99.90;;;;;;4192148;28;20047;-74
2021/08/16 07:57:32;;;;;;;12.75;4.63;;;16.40;99.90;;;;;;4193437;28;20033;-75
2021/08/16 07:59:33;;;;;;;10.45;6.22;;;16.20;99.90;;;;;;4187878;28;20044;-74
2021/08/16 08:01:33;;;;;;;11.55;4.90;;;16.00;99.90;;;;;;4210960;28;20090;-75
2021/08/16 08:03:34;;;;;;;7.22;5.18;;;15.90;99.90;;;;;;4192336;28;20032;-74
2021/08/16 08:05:35;;;;;;;13.35;5.93;;;15.80;99.90;;;;;;4210218;28;20024;-74
2021/08/16 08:07:36;;;;;;;9.90;4.93;;;15.70;99.90;;;;;;4185843;28;20017;-74
2021/08/16 08:09:36;;;;;;;8.65;5.88;;;15.50;99.90;;;;;;4202628;28;20506;-74
2021/08/16 08:11:37;;;;;;;7.05;4.63;;;15.50;99.90;;;;;;4205917;28;20816;-73
2021/08/16 08:13:38;;;;;;;15.35;6.03;;;15.40;99.90;;;;;;4210646;28;20119;-73
2021/08/16 08:15:39;;;;;;;10.30;5.95;;;15.30;99.90;;;;;;4210728;28;20024;-74
2021/08/16 08:17:40;;;;;;;8.63;5.63;;;15.30;99.90;;;;;;4207206;28;20067;-72
2021/08/16 08:19:41;;;;;;;13.25;5.40;;;15.30;99.90;;;;;;4187301;28;21072;-74
2021/08/16 08:21:41;;;;;;;13.35;6.35;;;15.30;99.90;;;;;;4190878;28;20044;-73
2021/08/16 08:23:42;;;;;;;11.55;6.50;;;15.40;99.90;;;;;;4204600;28;20028;-73
2021/08/16 08:25:43;;;;;;;12.30;6.68;;;15.50;99.90;;;;;;4193521;28;20033;-72
2021/08/16 08:27:44;;;;;;;10.95;5.00;;;15.70;99.90;;;;;;4192711;28;20061;-74
2021/08/16 08:29:45;;;;;;;14.30;6.50;;;16.00;99.90;;;;;;4196939;28;20045;-72
2021/08/16 08:31:45;;;;;;;9.68;4.95;;;16.40;99.90;;;;;;4212029;28;20028;-72
2021/08/16 08:33:46;;;;;;;9.20;5.20;;;16.60;99.90;;;;;;4214657;28;20544;-72
2021/08/16 08:35:48;;;;;;;9.93;4.75;;;17.00;99.90;;;;;;4212034;28;20032;-72
2021/08/16 08:37:49;;;;;;;11.27;5.90;;;17.20;99.90;;;;;;4193239;28;20353;-71
2021/08/16 08:39:50;;;;;;;8.98;5.18;;;17.60;99.90;;;;;;4196255;28;20496;-72
2021/08/16 08:41:56;;;;;;;8.43;5.38;;;17.80;99.90;;;;;;4213802;28;20035;-73
2021/08/16 08:43:59;;;;;;;11.55;4.70;;;17.90;99.90;;;;;;4195191;28;20035;-74
2021/08/16 08:46:01;;;;;;;12.30;5.10;;;17.90;99.90;;;;;;4213084;28;20028;-71
2021/08/16 08:48:02;;;;;;;7.90;4.75;;;18.00;99.90;;;;;;4194258;28;20048;-72
2021/08/16 08:50:03;;;;;;;10.57;5.05;;;18.00;99.90;;;;;;4213043;28;20059;-72
2021/08/16 08:52:04;;;;;;;12.90;5.10;;;18.00;99.90;;;;;;4195605;28;20032;-72
2021/08/16 08:54:05;;;;;;;12.27;5.57;;;17.90;99.90;;;;;;4210005;28;20039;-73
2021/08/16 08:56:06;;;;;;;8.68;5.85;;;17.70;99.90;;;;;;4213282;28;20016;-72
2021/08/16 08:58:07;;;;;;;16.50;5.75;;;17.60;99.90;;;;;;4213971;28;20430;-72
2021/08/16 09:00:15;;;;;;;15.00;5.53;;;17.60;99.90;;;;;;4196256;28;20024;-72
2021/08/16 09:02:17;;;;;;;9.70;5.50;;;17.70;99.90;;;;;;4212447;28;20388;-72
2021/08/16 09:04:18;;;;;;;6.65;5.15;;;18.00;99.90;;;;;;4213915;28;20039;-72
2021/08/16 09:06:33;;;;;;;9.93;4.88;;;18.00;99.90;;;;;;4209524;28;20020;-73
2021/08/16 09:08:36;;;;;;;12.25;4.00;;;18.20;99.90;;;;;;4214267;28;20036;-72
2021/08/16 09:10:37;;;;;;;10.90;4.30;;;18.40;99.90;;;;;;4211844;28;20047;-73
2021/08/16 09:12:39;;;;;;;11.50;5.18;;;18.50;99.90;;;;;;4189939;28;20032;-74
2021/08/16 09:14:46;;;;;;;9.45;4.80;;;16.00;99.90;;;;;;4210591;28;20036;-73
2021/08/16 09:16:48;;;;;;;11.07;5.47;;;18.20;99.90;;;;;;4208905;28;20034;-72
2021/08/16 09:18:50;;;;;;;10.15;5.03;;;17.90;99.90;;;;;;4195158;28;20115;-73
2021/08/16 09:20:54;;;;;;;13.13;5.32;;;17.70;99.90;;;;;;4209140;28;20028;-74
2021/08/16 09:23:07;;;;;;;10.52;5.00;;;17.60;99.90;;;;;;4195890;28;20028;-72
2021/08/16 09:25:10;;;;;;;9.13;4.90;;;17.60;99.90;;;;;;4211668;28;20040;-73
2021/08/16 09:27:11;;;;;;;14.77;6.07;;;17.60;99.90;;;;;;4212085;28;20028;-73
2021/08/16 09:29:18;;;;;;;14.23;7.10;;;17.60;99.90;;;;;;4209418;28;20508;-73
2021/08/16 09:31:20;;;;;;;13.32;5.22;;;17.50;99.90;;;;;;4193013;28;20037;-73
2021/08/16 09:33:22;;;;;;;9.35;5.43;;;17.50;99.90;;;;;;4194606;28;20100;-73
2021/08/16 09:35:23;;;;;;;11.75;5.43;;;17.50;99.90;;;;;;4193419;28;20044;-74
2021/08/16 09:37:26;;;;;;;12.55;6.65;;;17.40;99.90;;;;;;4207203;28;20029;-73
2021/08/16 09:39:27;;;;;;;15.10;5.63;;;17.40;99.90;;;;;;4210616;28;20498;-73
2021/08/16 09:41:28;;;;;;;15.43;8.65;;;17.50;99.90;;;;;;4208886;28;20049;-73
2021/08/16 09:43:30;;;;;;;8.18;5.07;;;17.60;99.90;;;;;;4211484;28;20047;-73
2021/08/16 09:45:33;;;;;;;12.07;7.28;;;17.70;99.90;;;;;;4209513;28;20043;-73
2021/08/16 09:47:44;;;;;;;16.58;7.43;;;17.80;99.90;;;;;;4213542;28;20483;-72
2021/08/16 09:49:57;;;;;;;10.20;6.50;;;18.10;99.90;;;;;;4211704;28;20433;-73
2021/08/16 09:52:02;;;;;;;13.75;6.70;;;18.70;99.90;;;;;;4178941;28;20037;-72
2021/08/16 09:54:03;;;;;;;11.93;5.78;;;19.20;99.90;;;;;;4206303;28;20044;-73
2021/08/16 09:56:04;;;;;;;8.07;4.28;;;19.40;99.90;;;;;;4194029;28;20048;-75
2021/08/16 09:58:13;;;;;;;11.10;5.03;;;19.40;99.90;;;;;;4212174;28;20037;-73
2021/08/16 10:00:14;;;;;;;11.10;6.63;;;19.30;99.90;;;;;;4194050;28;20029;-73
2021/08/16 10:02:16;;;;;;;9.48;6.20;;;19.10;99.90;;;;;;4212516;28;20043;-73
2021/08/16 10:04:17;;;;;;;14.15;7.97;;;19.10;99.90;;;;;;4194586;28;20036;-72
2021/08/16 10:06:18;;;;;;;12.25;5.72;;;19.20;99.90;;;;;;4191876;28;20037;-74
2021/08/16 10:08:40;;;;;;;13.88;6.47;;;19.50;99.90;;;;;;4209897;28;20032;-74
2021/08/16 10:10:42;;;;;;;14.90;7.75;;;19.70;99.90;;;;;;4211414;28;20032;-73
2021/08/16 10:12:43;;;;;;;14.80;7.15;;;20.00;99.90;;;;;;4192953;28;20032;-71
2021/08/16 10:14:46;;;;;;;12.65;5.85;;;20.30;99.90;;;;;;4213415;28;20024;-73
2021/08/16 10:16:50;;;;;;;16.00;6.38;;;20.50;99.90;;;;;;4195435;28;20040;-73
2021/08/16 10:19:07;;;;;;;11.32;5.60;;;20.60;99.90;;;;;;4206357;28;20043;-74
2021/08/16 10:21:10;;;;;;;12.20;6.47;;;20.50;99.90;;;;;;4207442;28;20116;-73
2021/08/16 10:23:25;;;;;;;12.10;5.82;;;20.30;99.90;;;;;;4205288;28;20432;-73
2021/08/16 10:25:26;;;;;;;12.80;6.57;;;20.50;99.90;;;;;;4211094;28;20063;-72